sensor_id;sensor_type;location;lat;lon;timestamp;P1;durP1;ratioP1;P2;durP2;ratioP2
8859;SDS011;4466;50.948;4.832;2024-02-21T00:00:56;19.77;;;8.30;;
8859;SDS011;4466;50.948;4.832;2024-02-21T00:03:21;18.23;;;8.03;;
8859;SDS011;4466;50.948;4.832;2024-02-21T00:05:47;19.10;;;8.20;;
8859;SDS011;4466;50.948;4.832;2024-02-21T00:08:13;21.47;;;8.30;;
8859;SDS011;4466;50.948;4.832;2024-02-21T00:10:38;19.33;;;8.53;;
8859;SDS011;4466;50.948;4.832;2024-02-21T00:13:04;18.67;;;8.37;;
8859;SDS011;4466;50.948;4.832;2024-02-21T00:15:30;18.70;;;8.10;;
8859;SDS011;4466;50.948;4.832;2024-02-21T00:17:55;19.57;;;7.93;;
8859;SDS011;4466;50.948;4.832;2024-02-21T00:20:21;17.90;;;8.27;;
8859;SDS011;4466;50.948;4.832;2024-02-21T00:22:46;14.83;;;7.83;;
8859;SDS011;4466;50.948;4.832;2024-02-21T00:25:12;15.67;;;8.40;;
8859;SDS011;4466;50.948;4.832;2024-02-21T00:27:38;21.00;;;8.60;;
8859;SDS011;4466;50.948;4.832;2024-02-21T00:30:04;17.70;;;8.07;;
8859;SDS011;4466;50.948;4.832;2024-02-21T00:32:30;18.63;;;8.50;;
8859;SDS011;4466;50.948;4.832;2024-02-21T00:34:57;21.00;;;8.80;;
8859;SDS011;4466;50.948;4.832;2024-02-21T00:37:22;19.47;;;8.90;;
8859;SDS011;4466;50.948;4.832;2024-02-21T00:39:48;22.73;;;10.00;;
8859;SDS011;4466;50.948;4.832;2024-02-21T00:42:14;20.03;;;9.63;;
8859;SDS011;4466;50.948;4.832;2024-02-21T00:44:39;17.20;;;8.80;;
8859;SDS011;4466;50.948;4.832;2024-02-21T00:47:05;19.07;;;9.43;;
8859;SDS011;4466;50.948;4.832;2024-02-21T00:49:30;19.47;;;9.93;;
8859;SDS011;4466;50.948;4.832;2024-02-21T00:51:56;22.27;;;9.50;;
8859;SDS011;4466;50.948;4.832;2024-02-21T00:54:22;20.03;;;8.80;;
8859;SDS011;4466;50.948;4.832;2024-02-21T00:56:48;19.73;;;9.77;;
8859;SDS011;4466;50.948;4.832;2024-02-21T00:59:13;21.63;;;8.87;;
8859;SDS011;4466;50.948;4.832;2024-02-21T01:01:39;19.63;;;10.13;;
8859;SDS011;4466;50.948;4.832;2024-02-21T01:04:07;22.33;;;9.17;;
8859;SDS011;4466;50.948;4.832;2024-02-21T01:06:34;18.60;;;9.57;;
8859;SDS011;4466;50.948;4.832;2024-02-21T01:08:59;21.87;;;9.20;;
8859;SDS011;4466;50.948;4.832;2024-02-21T01:11:25;18.77;;;9.37;;
8859;SDS011;4466;50.948;4.832;2024-02-21T01:13:51;21.40;;;9.73;;
8859;SDS011;4466;50.948;4.832;2024-02-21T01:16:16;20.77;;;9.47;;
8859;SDS011;4466;50.948;4.832;2024-02-21T01:18:42;22.40;;;9.67;;
8859;SDS011;4466;50.948;4.832;2024-02-21T01:21:07;20.83;;;9.30;;
8859;SDS011;4466;50.948;4.832;2024-02-21T01:23:35;17.87;;;8.63;;
8859;SDS011;4466;50.948;4.832;2024-02-21T01:26:01;21.83;;;8.27;;
8859;SDS011;4466;50.948;4.832;2024-02-21T01:28:27;17.83;;;8.17;;
8859;SDS011;4466;50.948;4.832;2024-02-21T01:30:53;18.67;;;8.47;;
8859;SDS011;4466;50.948;4.832;2024-02-21T01:33:18;17.03;;;7.63;;
8859;SDS011;4466;50.948;4.832;2024-02-21T01:35:44;18.10;;;8.03;;
8859;SDS011;4466;50.948;4.832;2024-02-21T01:38:10;18.43;;;8.13;;
8859;SDS011;4466;50.948;4.832;2024-02-21T01:40:37;18.33;;;8.37;;
8859;SDS011;4466;50.948;4.832;2024-02-21T01:43:03;14.93;;;7.60;;
8859;SDS011;4466;50.948;4.832;2024-02-21T01:45:29;15.23;;;7.70;;
8859;SDS011;4466;50.948;4.832;2024-02-21T01:47:54;22.30;;;8.10;;
8859;SDS011;4466;50.948;4.832;2024-02-21T01:50:20;18.70;;;8.00;;
8859;SDS011;4466;50.948;4.832;2024-02-21T01:52:47;23.60;;;7.80;;
8859;SDS011;4466;50.948;4.832;2024-02-21T01:55:15;18.90;;;8.10;;
8859;SDS011;4466;50.948;4.832;2024-02-21T01:57:42;20.37;;;8.57;;
8859;SDS011;4466;50.948;4.832;2024-02-21T02:00:11;21.13;;;8.03;;
8859;SDS011;4466;50.948;4.832;2024-02-21T02:02:38;15.57;;;7.43;;
8859;SDS011;4466;50.948;4.832;2024-02-21T02:05:05;15.53;;;7.20;;
8859;SDS011;4466;50.948;4.832;2024-02-21T02:07:34;14.13;;;7.70;;
8859;SDS011;4466;50.948;4.832;2024-02-21T02:09:59;16.90;;;7.90;;
8859;SDS011;4466;50.948;4.832;2024-02-21T02:12:25;14.77;;;7.50;;
8859;SDS011;4466;50.948;4.832;2024-02-21T02:14:58;15.80;;;7.07;;
8859;SDS011;4466;50.948;4.832;2024-02-21T02:17:24;15.20;;;7.10;;
8859;SDS011;4466;50.948;4.832;2024-02-21T02:19:51;16.23;;;7.67;;
8859;SDS011;4466;50.948;4.832;2024-02-21T02:22:18;14.27;;;6.47;;
8859;SDS011;4466;50.948;4.832;2024-02-21T02:24:47;17.37;;;7.27;;
8859;SDS011;4466;50.948;4.832;2024-02-21T02:27:14;17.83;;;6.73;;
8859;SDS011;4466;50.948;4.832;2024-02-21T02:29:39;14.37;;;6.53;;
8859;SDS011;4466;50.948;4.832;2024-02-21T02:32:05;14.93;;;6.60;;
8859;SDS011;4466;50.948;4.832;2024-02-21T02:34:31;13.87;;;6.10;;
8859;SDS011;4466;50.948;4.832;2024-02-21T02:36:56;12.90;;;5.83;;
8859;SDS011;4466;50.948;4.832;2024-02-21T02:39:22;14.13;;;6.70;;
8859;SDS011;4466;50.948;4.832;2024-02-21T02:41:48;14.33;;;6.77;;
8859;SDS011;4466;50.948;4.832;2024-02-21T02:44:13;16.37;;;7.30;;
8859;SDS011;4466;50.948;4.832;2024-02-21T02:46:42;17.57;;;6.90;;
8859;SDS011;4466;50.948;4.832;2024-02-21T02:49:08;14.77;;;6.77;;
8859;SDS011;4466;50.948;4.832;2024-02-21T02:51:34;10.57;;;6.57;;
8859;SDS011;4466;50.948;4.832;2024-02-21T02:54:00;18.23;;;6.60;;
8859;SDS011;4466;50.948;4.832;2024-02-21T02:56:25;16.07;;;7.20;;
8859;SDS011;4466;50.948;4.832;2024-02-21T02:58:51;14.93;;;7.33;;
8859;SDS011;4466;50.948;4.832;2024-02-21T03:01:16;16.70;;;7.43;;
8859;SDS011;4466;50.948;4.832;2024-02-21T03:03:42;15.27;;;6.80;;
8859;SDS011;4466;50.948;4.832;2024-02-21T03:06:08;17.27;;;7.00;;
8859;SDS011;4466;50.948;4.832;2024-02-21T03:08:33;15.90;;;7.30;;
8859;SDS011;4466;50.948;4.832;2024-02-21T03:10:59;16.13;;;7.03;;
8859;SDS011;4466;50.948;4.832;2024-02-21T03:13:25;18.67;;;6.83;;
8859;SDS011;4466;50.948;4.832;2024-02-21T03:15:51;14.30;;;6.73;;
8859;SDS011;4466;50.948;4.832;2024-02-21T03:18:17;16.40;;;6.40;;
8859;SDS011;4466;50.948;4.832;2024-02-21T03:20:42;12.53;;;6.40;;
8859;SDS011;4466;50.948;4.832;2024-02-21T03:23:08;17.03;;;5.93;;
8859;SDS011;4466;50.948;4.832;2024-02-21T03:25:33;15.70;;;6.70;;
8859;SDS011;4466;50.948;4.832;2024-02-21T03:27:59;12.97;;;6.20;;
8859;SDS011;4466;50.948;4.832;2024-02-21T03:30:25;15.73;;;6.40;;
8859;SDS011;4466;50.948;4.832;2024-02-21T03:32:50;11.33;;;6.07;;
8859;SDS011;4466;50.948;4.832;2024-02-21T03:35:16;14.63;;;6.63;;
8859;SDS011;4466;50.948;4.832;2024-02-21T03:37:42;16.43;;;7.37;;
8859;SDS011;4466;50.948;4.832;2024-02-21T03:40:09;15.30;;;6.83;;
8859;SDS011;4466;50.948;4.832;2024-02-21T03:42:35;13.40;;;6.60;;
8859;SDS011;4466;50.948;4.832;2024-02-21T03:45:02;12.10;;;6.30;;
8859;SDS011;4466;50.948;4.832;2024-02-21T03:47:28;14.57;;;5.97;;
8859;SDS011;4466;50.948;4.832;2024-02-21T03:49:54;12.73;;;6.40;;
8859;SDS011;4466;50.948;4.832;2024-02-21T03:52:20;13.97;;;6.27;;
8859;SDS011;4466;50.948;4.832;2024-02-21T03:54:45;14.40;;;6.20;;
8859;SDS011;4466;50.948;4.832;2024-02-21T03:57:11;12.83;;;6.30;;
8859;SDS011;4466;50.948;4.832;2024-02-21T03:59:37;14.80;;;6.50;;
8859;SDS011;4466;50.948;4.832;2024-02-21T04:02:05;14.87;;;6.60;;
8859;SDS011;4466;50.948;4.832;2024-02-21T04:04:33;17.23;;;6.97;;
8859;SDS011;4466;50.948;4.832;2024-02-21T04:07:00;14.37;;;6.87;;
8859;SDS011;4466;50.948;4.832;2024-02-21T04:09:26;12.87;;;6.63;;
8859;SDS011;4466;50.948;4.832;2024-02-21T04:11:51;13.67;;;6.57;;
8859;SDS011;4466;50.948;4.832;2024-02-21T04:14:17;14.07;;;6.77;;
8859;SDS011;4466;50.948;4.832;2024-02-21T04:16:43;18.07;;;6.13;;
8859;SDS011;4466;50.948;4.832;2024-02-21T04:19:08;13.77;;;6.37;;
8859;SDS011;4466;50.948;4.832;2024-02-21T04:21:34;14.23;;;6.63;;
8859;SDS011;4466;50.948;4.832;2024-02-21T04:24:00;12.83;;;6.60;;
8859;SDS011;4466;50.948;4.832;2024-02-21T04:26:27;18.27;;;7.00;;
8859;SDS011;4466;50.948;4.832;2024-02-21T04:28:52;11.63;;;6.23;;
8859;SDS011;4466;50.948;4.832;2024-02-21T04:31:18;16.53;;;6.83;;
8859;SDS011;4466;50.948;4.832;2024-02-21T04:33:43;15.40;;;7.33;;
8859;SDS011;4466;50.948;4.832;2024-02-21T04:36:09;14.67;;;6.60;;
8859;SDS011;4466;50.948;4.832;2024-02-21T04:38:35;16.03;;;7.13;;
8859;SDS011;4466;50.948;4.832;2024-02-21T04:41:01;14.07;;;6.67;;
8859;SDS011;4466;50.948;4.832;2024-02-21T04:43:26;14.27;;;7.20;;
8859;SDS011;4466;50.948;4.832;2024-02-21T04:45:52;15.00;;;7.10;;
8859;SDS011;4466;50.948;4.832;2024-02-21T04:48:18;16.37;;;7.17;;
8859;SDS011;4466;50.948;4.832;2024-02-21T04:50:44;18.43;;;7.23;;
8859;SDS011;4466;50.948;4.832;2024-02-21T04:53:10;16.30;;;7.00;;
8859;SDS011;4466;50.948;4.832;2024-02-21T04:55:35;13.10;;;6.90;;
8859;SDS011;4466;50.948;4.832;2024-02-21T04:58:01;16.90;;;7.03;;
8859;SDS011;4466;50.948;4.832;2024-02-21T05:00:27;12.70;;;6.03;;
8859;SDS011;4466;50.948;4.832;2024-02-21T05:02:53;16.27;;;6.93;;
8859;SDS011;4466;50.948;4.832;2024-02-21T05:05:19;15.90;;;6.70;;
8859;SDS011;4466;50.948;4.832;2024-02-21T05:07:44;15.03;;;6.53;;
8859;SDS011;4466;50.948;4.832;2024-02-21T05:10:10;14.07;;;6.43;;
8859;SDS011;4466;50.948;4.832;2024-02-21T05:12:35;10.57;;;6.10;;
8859;SDS011;4466;50.948;4.832;2024-02-21T05:15:02;15.40;;;6.53;;
8859;SDS011;4466;50.948;4.832;2024-02-21T05:17:28;12.73;;;6.60;;
8859;SDS011;4466;50.948;4.832;2024-02-21T05:19:57;17.50;;;7.07;;
8859;SDS011;4466;50.948;4.832;2024-02-21T05:22:22;12.73;;;6.63;;
8859;SDS011;4466;50.948;4.832;2024-02-21T05:24:48;14.20;;;7.07;;
8859;SDS011;4466;50.948;4.832;2024-02-21T05:27:13;16.13;;;7.57;;
8859;SDS011;4466;50.948;4.832;2024-02-21T05:29:39;15.17;;;6.90;;
8859;SDS011;4466;50.948;4.832;2024-02-21T05:32:05;18.50;;;7.17;;
8859;SDS011;4466;50.948;4.832;2024-02-21T05:34:31;14.83;;;7.33;;
8859;SDS011;4466;50.948;4.832;2024-02-21T05:36:56;12.10;;;6.53;;
8859;SDS011;4466;50.948;4.832;2024-02-21T05:39:24;10.73;;;6.30;;
8859;SDS011;4466;50.948;4.832;2024-02-21T05:41:50;14.10;;;6.67;;
8859;SDS011;4466;50.948;4.832;2024-02-21T05:44:16;14.90;;;6.40;;
8859;SDS011;4466;50.948;4.832;2024-02-21T05:46:42;9.20;;;6.30;;
8859;SDS011;4466;50.948;4.832;2024-02-21T05:49:07;11.03;;;6.47;;
8859;SDS011;4466;50.948;4.832;2024-02-21T05:51:33;12.73;;;6.27;;
8859;SDS011;4466;50.948;4.832;2024-02-21T05:53:59;12.67;;;6.27;;
8859;SDS011;4466;50.948;4.832;2024-02-21T05:56:25;13.53;;;6.17;;
8859;SDS011;4466;50.948;4.832;2024-02-21T05:58:51;11.97;;;6.43;;
8859;SDS011;4466;50.948;4.832;2024-02-21T06:01:16;12.20;;;6.67;;
8859;SDS011;4466;50.948;4.832;2024-02-21T06:03:43;12.40;;;6.73;;
8859;SDS011;4466;50.948;4.832;2024-02-21T06:06:08;11.90;;;5.50;;
8859;SDS011;4466;50.948;4.832;2024-02-21T06:08:34;10.80;;;6.40;;
8859;SDS011;4466;50.948;4.832;2024-02-21T06:11:00;11.10;;;5.90;;
8859;SDS011;4466;50.948;4.832;2024-02-21T06:13:26;11.83;;;5.87;;
8859;SDS011;4466;50.948;4.832;2024-02-21T06:15:52;9.83;;;5.73;;
8859;SDS011;4466;50.948;4.832;2024-02-21T06:18:18;12.40;;;5.97;;
8859;SDS011;4466;50.948;4.832;2024-02-21T06:20:44;14.33;;;6.13;;
8859;SDS011;4466;50.948;4.832;2024-02-21T06:23:11;10.03;;;5.50;;
8859;SDS011;4466;50.948;4.832;2024-02-21T06:25:41;12.37;;;6.13;;
8859;SDS011;4466;50.948;4.832;2024-02-21T06:28:07;12.90;;;5.30;;
8859;SDS011;4466;50.948;4.832;2024-02-21T06:30:32;8.40;;;5.43;;
8859;SDS011;4466;50.948;4.832;2024-02-21T06:32:58;9.17;;;4.90;;
8859;SDS011;4466;50.948;4.832;2024-02-21T06:35:24;7.60;;;5.20;;
8859;SDS011;4466;50.948;4.832;2024-02-21T06:37:50;8.30;;;5.00;;
8859;SDS011;4466;50.948;4.832;2024-02-21T06:40:23;8.07;;;5.07;;
8859;SDS011;4466;50.948;4.832;2024-02-21T06:42:52;12.83;;;5.03;;
8859;SDS011;4466;50.948;4.832;2024-02-21T06:45:17;9.70;;;4.73;;
8859;SDS011;4466;50.948;4.832;2024-02-21T06:47:43;14.63;;;5.07;;
8859;SDS011;4466;50.948;4.832;2024-02-21T06:50:09;7.87;;;4.60;;
8859;SDS011;4466;50.948;4.832;2024-02-21T06:52:35;9.47;;;5.33;;
8859;SDS011;4466;50.948;4.832;2024-02-21T06:55:01;6.53;;;4.90;;
8859;SDS011;4466;50.948;4.832;2024-02-21T06:57:28;8.40;;;4.87;;
8859;SDS011;4466;50.948;4.832;2024-02-21T06:59:54;8.50;;;5.03;;
8859;SDS011;4466;50.948;4.832;2024-02-21T07:02:20;9.50;;;5.07;;
8859;SDS011;4466;50.948;4.832;2024-02-21T07:04:45;7.70;;;4.97;;
8859;SDS011;4466;50.948;4.832;2024-02-21T07:07:11;9.33;;;5.43;;
8859;SDS011;4466;50.948;4.832;2024-02-21T07:09:37;9.60;;;4.90;;
8859;SDS011;4466;50.948;4.832;2024-02-21T07:12:03;10.20;;;5.80;;
8859;SDS011;4466;50.948;4.832;2024-02-21T07:14:29;10.83;;;5.70;;
8859;SDS011;4466;50.948;4.832;2024-02-21T07:16:57;8.90;;;5.53;;
8859;SDS011;4466;50.948;4.832;2024-02-21T07:19:22;9.47;;;5.63;;
8859;SDS011;4466;50.948;4.832;2024-02-21T07:21:48;11.10;;;6.37;;
8859;SDS011;4466;50.948;4.832;2024-02-21T07:24:14;9.87;;;6.00;;
8859;SDS011;4466;50.948;4.832;2024-02-21T07:26:43;11.03;;;6.40;;
8859;SDS011;4466;50.948;4.832;2024-02-21T07:29:09;10.63;;;6.20;;
8859;SDS011;4466;50.948;4.832;2024-02-21T07:31:43;10.93;;;6.90;;
8859;SDS011;4466;50.948;4.832;2024-02-21T07:34:10;10.27;;;6.77;;
8859;SDS011;4466;50.948;4.832;2024-02-21T07:36:36;10.87;;;6.70;;
8859;SDS011;4466;50.948;4.832;2024-02-21T07:39:04;11.60;;;7.30;;
8859;SDS011;4466;50.948;4.832;2024-02-21T07:41:30;13.20;;;7.50;;
8859;SDS011;4466;50.948;4.832;2024-02-21T07:43:56;10.30;;;6.77;;
8859;SDS011;4466;50.948;4.832;2024-02-21T07:46:22;16.27;;;7.80;;
8859;SDS011;4466;50.948;4.832;2024-02-21T07:48:47;12.40;;;7.90;;
8859;SDS011;4466;50.948;4.832;2024-02-21T07:51:13;9.57;;;7.40;;
8859;SDS011;4466;50.948;4.832;2024-02-21T07:53:39;11.57;;;7.97;;
8859;SDS011;4466;50.948;4.832;2024-02-21T07:56:10;12.83;;;7.67;;
8859;SDS011;4466;50.948;4.832;2024-02-21T07:58:39;12.90;;;8.03;;
8859;SDS011;4466;50.948;4.832;2024-02-21T08:01:05;13.20;;;8.10;;
8859;SDS011;4466;50.948;4.832;2024-02-21T08:03:31;14.80;;;8.57;;
8859;SDS011;4466;50.948;4.832;2024-02-21T08:05:57;13.70;;;8.20;;
8859;SDS011;4466;50.948;4.832;2024-02-21T08:08:22;10.60;;;7.37;;
8859;SDS011;4466;50.948;4.832;2024-02-21T08:10:51;14.30;;;8.63;;
8859;SDS011;4466;50.948;4.832;2024-02-21T08:13:17;14.17;;;7.43;;
8859;SDS011;4466;50.948;4.832;2024-02-21T08:15:43;11.60;;;6.73;;
8859;SDS011;4466;50.948;4.832;2024-02-21T08:18:08;13.07;;;7.47;;
8859;SDS011;4466;50.948;4.832;2024-02-21T08:20:34;14.10;;;7.43;;
8859;SDS011;4466;50.948;4.832;2024-02-21T08:23:00;12.03;;;7.17;;
8859;SDS011;4466;50.948;4.832;2024-02-21T08:25:26;10.47;;;6.73;;
8859;SDS011;4466;50.948;4.832;2024-02-21T08:27:53;12.70;;;6.40;;
8859;SDS011;4466;50.948;4.832;2024-02-21T08:30:22;10.83;;;6.30;;
8859;SDS011;4466;50.948;4.832;2024-02-21T08:32:48;11.77;;;6.53;;
8859;SDS011;4466;50.948;4.832;2024-02-21T08:35:13;12.13;;;5.67;;
8859;SDS011;4466;50.948;4.832;2024-02-21T08:37:39;14.40;;;6.07;;
8859;SDS011;4466;50.948;4.832;2024-02-21T08:40:05;9.70;;;5.67;;
8859;SDS011;4466;50.948;4.832;2024-02-21T08:42:34;9.57;;;5.53;;
8859;SDS011;4466;50.948;4.832;2024-02-21T08:45:01;8.67;;;5.00;;
8859;SDS011;4466;50.948;4.832;2024-02-21T08:47:27;10.30;;;5.03;;
8859;SDS011;4466;50.948;4.832;2024-02-21T08:49:52;8.33;;;4.97;;
8859;SDS011;4466;50.948;4.832;2024-02-21T08:52:18;8.87;;;4.87;;
8859;SDS011;4466;50.948;4.832;2024-02-21T08:54:44;9.03;;;4.60;;
8859;SDS011;4466;50.948;4.832;2024-02-21T08:57:09;9.73;;;5.20;;
8859;SDS011;4466;50.948;4.832;2024-02-21T08:59:35;8.40;;;4.20;;
8859;SDS011;4466;50.948;4.832;2024-02-21T09:02:00;9.13;;;4.67;;
8859;SDS011;4466;50.948;4.832;2024-02-21T09:04:27;8.47;;;4.27;;
8859;SDS011;4466;50.948;4.832;2024-02-21T09:06:53;8.30;;;4.53;;
8859;SDS011;4466;50.948;4.832;2024-02-21T09:09:19;10.83;;;4.17;;
8859;SDS011;4466;50.948;4.832;2024-02-21T09:11:45;5.70;;;3.73;;
8859;SDS011;4466;50.948;4.832;2024-02-21T09:14:10;7.63;;;4.03;;
8859;SDS011;4466;50.948;4.832;2024-02-21T09:16:37;7.00;;;4.23;;
8859;SDS011;4466;50.948;4.832;2024-02-21T09:19:02;8.50;;;4.00;;
8859;SDS011;4466;50.948;4.832;2024-02-21T09:21:28;8.17;;;3.77;;
8859;SDS011;4466;50.948;4.832;2024-02-21T09:23:53;8.23;;;3.87;;
8859;SDS011;4466;50.948;4.832;2024-02-21T09:26:19;8.80;;;3.97;;
8859;SDS011;4466;50.948;4.832;2024-02-21T09:28:45;6.77;;;3.63;;
8859;SDS011;4466;50.948;4.832;2024-02-21T09:31:11;10.23;;;3.77;;
8859;SDS011;4466;50.948;4.832;2024-02-21T09:33:36;6.53;;;3.33;;
8859;SDS011;4466;50.948;4.832;2024-02-21T09:36:02;6.57;;;3.60;;
8859;SDS011;4466;50.948;4.832;2024-02-21T09:38:30;10.23;;;3.80;;
8859;SDS011;4466;50.948;4.832;2024-02-21T09:41:12;7.00;;;3.40;;
8859;SDS011;4466;50.948;4.832;2024-02-21T09:43:43;8.70;;;3.57;;
8859;SDS011;4466;50.948;4.832;2024-02-21T09:46:15;8.60;;;3.50;;
8859;SDS011;4466;50.948;4.832;2024-02-21T09:48:48;8.03;;;3.50;;
8859;SDS011;4466;50.948;4.832;2024-02-21T09:51:23;7.77;;;3.47;;
8859;SDS011;4466;50.948;4.832;2024-02-21T09:53:52;7.63;;;3.17;;
8859;SDS011;4466;50.948;4.832;2024-02-21T09:56:18;7.87;;;3.30;;
8859;SDS011;4466;50.948;4.832;2024-02-21T09:58:44;8.47;;;3.57;;
8859;SDS011;4466;50.948;4.832;2024-02-21T10:01:12;6.87;;;3.50;;
8859;SDS011;4466;50.948;4.832;2024-02-21T10:03:38;6.70;;;3.40;;
8859;SDS011;4466;50.948;4.832;2024-02-21T10:06:03;6.57;;;3.27;;
8859;SDS011;4466;50.948;4.832;2024-02-21T10:08:29;5.83;;;3.20;;
8859;SDS011;4466;50.948;4.832;2024-02-21T10:10:55;8.13;;;3.87;;
8859;SDS011;4466;50.948;4.832;2024-02-21T10:13:30;8.43;;;3.23;;
8859;SDS011;4466;50.948;4.832;2024-02-21T10:16:05;7.03;;;3.20;;
8859;SDS011;4466;50.948;4.832;2024-02-21T10:18:35;6.93;;;3.17;;
8859;SDS011;4466;50.948;4.832;2024-02-21T10:23:27;9.20;;;3.20;;
8859;SDS011;4466;50.948;4.832;2024-02-21T10:25:52;8.63;;;3.40;;
8859;SDS011;4466;50.948;4.832;2024-02-21T10:28:18;7.07;;;3.27;;
8859;SDS011;4466;50.948;4.832;2024-02-21T10:30:51;7.70;;;3.77;;
8859;SDS011;4466;50.948;4.832;2024-02-21T10:33:18;7.40;;;3.20;;
8859;SDS011;4466;50.948;4.832;2024-02-21T10:35:47;10.80;;;3.37;;
8859;SDS011;4466;50.948;4.832;2024-02-21T10:38:14;7.60;;;3.17;;
8859;SDS011;4466;50.948;4.832;2024-02-21T10:40:40;7.97;;;3.00;;
8859;SDS011;4466;50.948;4.832;2024-02-21T10:43:06;7.27;;;3.27;;
8859;SDS011;4466;50.948;4.832;2024-02-21T10:45:37;7.83;;;3.00;;
8859;SDS011;4466;50.948;4.832;2024-02-21T10:48:14;6.60;;;2.70;;
8859;SDS011;4466;50.948;4.832;2024-02-21T10:59:04;6.80;;;2.90;;
8859;SDS011;4466;50.948;4.832;2024-02-21T11:01:30;6.57;;;2.80;;
8859;SDS011;4466;50.948;4.832;2024-02-21T11:04:01;9.87;;;2.97;;
8859;SDS011;4466;50.948;4.832;2024-02-21T11:06:29;5.63;;;2.77;;
8859;SDS011;4466;50.948;4.832;2024-02-21T11:09:04;8.37;;;2.83;;
8859;SDS011;4466;50.948;4.832;2024-02-21T11:11:34;6.90;;;2.47;;
8859;SDS011;4466;50.948;4.832;2024-02-21T11:16:39;9.87;;;3.23;;
8859;SDS011;4466;50.948;4.832;2024-02-21T11:21:51;7.60;;;2.80;;
8859;SDS011;4466;50.948;4.832;2024-02-21T11:29:42;6.33;;;3.00;;
8859;SDS011;4466;50.948;4.832;2024-02-21T11:32:09;6.60;;;2.40;;
8859;SDS011;4466;50.948;4.832;2024-02-21T11:34:38;7.57;;;2.50;;
8859;SDS011;4466;50.948;4.832;2024-02-21T11:37:13;6.00;;;2.50;;
8859;SDS011;4466;50.948;4.832;2024-02-21T11:39:42;6.13;;;2.60;;
8859;SDS011;4466;50.948;4.832;2024-02-21T11:42:08;10.40;;;2.80;;
8859;SDS011;4466;50.948;4.832;2024-02-21T11:44:35;4.72;;;2.35;;
8859;SDS011;4466;50.948;4.832;2024-02-21T11:47:03;6.93;;;2.58;;
8859;SDS011;4466;50.948;4.832;2024-02-21T11:49:29;5.13;;;2.17;;
8859;SDS011;4466;50.948;4.832;2024-02-21T11:52:02;9.07;;;2.20;;
8859;SDS011;4466;50.948;4.832;2024-02-21T11:54:31;4.77;;;2.20;;
8859;SDS011;4466;50.948;4.832;2024-02-21T11:56:58;11.03;;;2.30;;
8859;SDS011;4466;50.948;4.832;2024-02-21T11:59:24;5.03;;;2.00;;
8859;SDS011;4466;50.948;4.832;2024-02-21T12:01:49;5.10;;;2.10;;
8859;SDS011;4466;50.948;4.832;2024-02-21T12:04:17;4.90;;;2.07;;
8859;SDS011;4466;50.948;4.832;2024-02-21T12:06:44;6.20;;;2.33;;
8859;SDS011;4466;50.948;4.832;2024-02-21T12:09:17;8.70;;;2.20;;
8859;SDS011;4466;50.948;4.832;2024-02-21T12:11:43;5.77;;;2.20;;
8859;SDS011;4466;50.948;4.832;2024-02-21T12:14:09;6.10;;;2.40;;
8859;SDS011;4466;50.948;4.832;2024-02-21T12:16:36;5.17;;;2.50;;
8859;SDS011;4466;50.948;4.832;2024-02-21T12:19:02;4.20;;;2.17;;
8859;SDS011;4466;50.948;4.832;2024-02-21T12:21:32;5.97;;;2.40;;
8859;SDS011;4466;50.948;4.832;2024-02-21T12:24:23;7.73;;;2.07;;
8859;SDS011;4466;50.948;4.832;2024-02-21T12:26:48;5.97;;;2.80;;
8859;SDS011;4466;50.948;4.832;2024-02-21T12:29:17;5.57;;;2.43;;
8859;SDS011;4466;50.948;4.832;2024-02-21T12:31:44;4.73;;;2.07;;
8859;SDS011;4466;50.948;4.832;2024-02-21T12:34:10;5.63;;;2.23;;
8859;SDS011;4466;50.948;4.832;2024-02-21T12:36:36;4.70;;;2.37;;
8859;SDS011;4466;50.948;4.832;2024-02-21T12:39:12;6.93;;;2.50;;
8859;SDS011;4466;50.948;4.832;2024-02-21T12:41:39;9.00;;;2.53;;
8859;SDS011;4466;50.948;4.832;2024-02-21T12:44:05;7.77;;;2.50;;
8859;SDS011;4466;50.948;4.832;2024-02-21T12:46:36;3.47;;;2.20;;
8859;SDS011;4466;50.948;4.832;2024-02-21T12:49:02;5.13;;;2.70;;
8859;SDS011;4466;50.948;4.832;2024-02-21T12:51:29;5.40;;;2.33;;
8859;SDS011;4466;50.948;4.832;2024-02-21T12:53:55;4.87;;;2.30;;
8859;SDS011;4466;50.948;4.832;2024-02-21T12:56:21;5.37;;;2.77;;
8859;SDS011;4466;50.948;4.832;2024-02-21T12:58:47;7.10;;;2.60;;
8859;SDS011;4466;50.948;4.832;2024-02-21T13:01:13;6.18;;;2.42;;
8859;SDS011;4466;50.948;4.832;2024-02-21T13:03:38;8.00;;;2.00;;
8859;SDS011;4466;50.948;4.832;2024-02-21T13:06:04;4.87;;;2.33;;
8859;SDS011;4466;50.948;4.832;2024-02-21T13:08:31;7.73;;;2.67;;
8859;SDS011;4466;50.948;4.832;2024-02-21T13:10:57;5.20;;;2.33;;
8859;SDS011;4466;50.948;4.832;2024-02-21T13:13:22;7.07;;;2.43;;
8859;SDS011;4466;50.948;4.832;2024-02-21T13:15:48;4.23;;;2.43;;
8859;SDS011;4466;50.948;4.832;2024-02-21T13:18:14;5.00;;;2.40;;
8859;SDS011;4466;50.948;4.832;2024-02-21T13:20:39;5.00;;;2.47;;
8859;SDS011;4466;50.948;4.832;2024-02-21T13:23:05;4.43;;;2.43;;
8859;SDS011;4466;50.948;4.832;2024-02-21T13:25:30;5.33;;;2.53;;
8859;SDS011;4466;50.948;4.832;2024-02-21T13:27:56;6.23;;;2.50;;
8859;SDS011;4466;50.948;4.832;2024-02-21T13:30:22;5.13;;;2.67;;
8859;SDS011;4466;50.948;4.832;2024-02-21T13:32:48;5.85;;;2.38;;
8859;SDS011;4466;50.948;4.832;2024-02-21T13:35:14;8.45;;;2.85;;
8859;SDS011;4466;50.948;4.832;2024-02-21T13:37:40;6.60;;;2.93;;
8859;SDS011;4466;50.948;4.832;2024-02-21T13:40:07;9.90;;;3.13;;
8859;SDS011;4466;50.948;4.832;2024-02-21T13:42:36;5.38;;;2.70;;
8859;SDS011;4466;50.948;4.832;2024-02-21T13:45:03;8.10;;;2.63;;
8859;SDS011;4466;50.948;4.832;2024-02-21T13:47:32;9.80;;;3.43;;
8859;SDS011;4466;50.948;4.832;2024-02-21T13:49:58;6.70;;;2.97;;
8859;SDS011;4466;50.948;4.832;2024-02-21T13:52:24;6.57;;;2.57;;
8859;SDS011;4466;50.948;4.832;2024-02-21T13:54:51;6.70;;;2.90;;
8859;SDS011;4466;50.948;4.832;2024-02-21T13:57:17;6.03;;;2.63;;
8859;SDS011;4466;50.948;4.832;2024-02-21T13:59:43;8.43;;;2.97;;
8859;SDS011;4466;50.948;4.832;2024-02-21T14:02:08;6.10;;;3.07;;
8859;SDS011;4466;50.948;4.832;2024-02-21T14:04:35;4.70;;;2.47;;
8859;SDS011;4466;50.948;4.832;2024-02-21T14:07:00;7.23;;;2.77;;
8859;SDS011;4466;50.948;4.832;2024-02-21T14:09:26;5.83;;;2.47;;
8859;SDS011;4466;50.948;4.832;2024-02-21T14:11:54;5.33;;;2.77;;
8859;SDS011;4466;50.948;4.832;2024-02-21T14:14:20;5.67;;;2.63;;
8859;SDS011;4466;50.948;4.832;2024-02-21T14:16:46;6.60;;;3.00;;
8859;SDS011;4466;50.948;4.832;2024-02-21T14:19:13;6.30;;;2.93;;
8859;SDS011;4466;50.948;4.832;2024-02-21T14:21:42;5.37;;;2.77;;
8859;SDS011;4466;50.948;4.832;2024-02-21T14:24:08;4.70;;;2.63;;
8859;SDS011;4466;50.948;4.832;2024-02-21T14:26:33;5.27;;;2.50;;
8859;SDS011;4466;50.948;4.832;2024-02-21T14:29:00;7.07;;;2.80;;
8859;SDS011;4466;50.948;4.832;2024-02-21T14:31:28;7.97;;;3.10;;
8859;SDS011;4466;50.948;4.832;2024-02-21T14:33:56;7.10;;;3.10;;
8859;SDS011;4466;50.948;4.832;2024-02-21T14:36:21;6.03;;;2.83;;
8859;SDS011;4466;50.948;4.832;2024-02-21T14:38:49;9.70;;;3.37;;
8859;SDS011;4466;50.948;4.832;2024-02-21T14:41:17;6.70;;;3.10;;
8859;SDS011;4466;50.948;4.832;2024-02-21T14:43:43;8.47;;;2.80;;
8859;SDS011;4466;50.948;4.832;2024-02-21T14:46:09;5.50;;;2.83;;
8859;SDS011;4466;50.948;4.832;2024-02-21T14:48:37;10.87;;;3.37;;
8859;SDS011;4466;50.948;4.832;2024-02-21T14:51:03;5.03;;;3.10;;
8859;SDS011;4466;50.948;4.832;2024-02-21T14:53:29;6.67;;;3.20;;
8859;SDS011;4466;50.948;4.832;2024-02-21T14:55:56;8.17;;;3.07;;
8859;SDS011;4466;50.948;4.832;2024-02-21T14:58:22;6.67;;;2.97;;
8859;SDS011;4466;50.948;4.832;2024-02-21T15:00:49;6.37;;;3.00;;
8859;SDS011;4466;50.948;4.832;2024-02-21T15:03:15;7.07;;;3.23;;
8859;SDS011;4466;50.948;4.832;2024-02-21T15:05:45;7.70;;;3.50;;
8859;SDS011;4466;50.948;4.832;2024-02-21T15:08:11;6.00;;;3.23;;
8859;SDS011;4466;50.948;4.832;2024-02-21T15:10:37;7.60;;;3.40;;
8859;SDS011;4466;50.948;4.832;2024-02-21T15:13:03;9.57;;;3.47;;
8859;SDS011;4466;50.948;4.832;2024-02-21T15:15:29;6.83;;;3.27;;
8859;SDS011;4466;50.948;4.832;2024-02-21T15:17:55;8.30;;;3.30;;
8859;SDS011;4466;50.948;4.832;2024-02-21T15:20:21;8.40;;;3.17;;
8859;SDS011;4466;50.948;4.832;2024-02-21T15:22:47;4.87;;;2.93;;
8859;SDS011;4466;50.948;4.832;2024-02-21T15:25:12;8.53;;;3.30;;